createdAt,value
2018-08-16T00:01:36.949Z,101786.98
2018-08-16T00:04:05.264Z,101782.22
2018-08-16T00:06:33.582Z,101785.00
2018-08-16T00:09:02.468Z,101783.64
2018-08-16T00:11:30.784Z,101786.41
2018-08-16T00:13:58.549Z,101783.36
2018-08-16T00:16:26.869Z,101782.42
2018-08-16T00:18:55.762Z,101788.19
2018-08-16T00:21:23.494Z,101789.00
2018-08-16T00:23:51.809Z,101788.05
2018-08-16T00:26:20.696Z,101786.95
2018-08-16T00:28:49.021Z,101784.80
2018-08-16T00:31:17.329Z,101792.56
2018-08-16T00:33:45.642Z,101783.67
2018-08-16T00:36:13.374Z,101783.64
2018-08-16T00:38:41.683Z,101780.36
2018-08-16T00:41:10.573Z,101786.68
2018-08-16T00:43:38.310Z,101785.20
2018-08-16T00:46:06.630Z,101788.92
2018-08-16T00:48:36.403Z,101790.83
2018-08-16T00:51:04.188Z,101793.29
2018-08-16T00:53:31.953Z,101789.48
2018-08-16T00:56:00.250Z,101789.53
2018-08-16T00:58:28.567Z,101788.32
2018-08-16T01:00:56.885Z,101794.05
2018-08-16T01:03:25.197Z,101794.88
2018-08-16T01:05:54.100Z,101791.47
2018-08-16T01:08:22.415Z,101793.59
2018-08-16T01:10:50.150Z,101787.07
2018-08-16T01:13:19.048Z,101787.20
2018-08-16T01:15:46.815Z,101785.41
2018-08-16T01:18:15.130Z,101788.41
2018-08-16T01:20:44.017Z,101788.63
2018-08-16T01:23:12.329Z,101789.83
2018-08-16T01:25:40.078Z,101788.81
2018-08-16T01:28:08.972Z,101790.79
2018-08-16T01:30:37.284Z,101793.30
2018-08-16T01:33:05.022Z,101791.91
2018-08-16T01:35:33.985Z,101790.42
2018-08-16T01:38:01.650Z,101794.22
2018-08-16T01:40:30.541Z,101791.87
2018-08-16T01:42:58.873Z,101796.80
2018-08-16T01:45:27.187Z,101798.73
2018-08-16T01:47:55.502Z,101796.88
2018-08-16T01:50:23.230Z,101799.28
2018-08-16T01:52:51.545Z,101797.91
2018-08-16T01:55:19.866Z,101799.59
2018-08-16T01:57:48.767Z,101801.30
2018-08-16T02:00:16.500Z,101807.80
2018-08-16T02:02:45.404Z,101809.13
2018-08-16T02:05:13.713Z,101810.02
2018-08-16T02:07:41.438Z,101805.63
2018-08-16T02:10:10.335Z,101808.43
2018-08-16T02:12:38.061Z,101804.84
2018-08-16T02:15:06.951Z,101806.30
2018-08-16T02:17:35.298Z,101806.11
2018-08-16T02:20:03.636Z,101803.42
2018-08-16T02:22:31.965Z,101804.81
2018-08-16T02:24:59.698Z,101808.58
2018-08-16T02:27:28.011Z,101807.38
2018-08-16T02:29:56.318Z,101807.42
2018-08-16T02:32:24.634Z,101804.34
2018-08-16T02:34:53.528Z,101806.29
2018-08-16T02:37:21.832Z,101803.02
2018-08-16T02:39:50.144Z,101804.78
2018-08-16T02:42:17.886Z,101810.59
2018-08-16T02:44:46.775Z,101810.70
2018-08-16T02:47:15.089Z,101811.20
2018-08-16T02:49:42.841Z,101809.46
2018-08-16T02:52:11.166Z,101811.45
2018-08-16T02:54:39.474Z,101809.86
2018-08-16T02:57:07.786Z,101811.66
2018-08-16T02:59:36.682Z,101812.74
2018-08-16T03:02:04.996Z,101814.34
2018-08-16T03:04:33.307Z,101812.30
2018-08-16T03:07:01.047Z,101815.25
2018-08-16T03:09:29.367Z,101818.61
2018-08-16T03:11:58.271Z,101814.27
2018-08-16T03:14:26.576Z,101815.39
2018-08-16T03:16:54.893Z,101813.95
2018-08-16T03:19:23.481Z,101815.09
2018-08-16T03:21:51.793Z,101816.69
2018-08-16T03:24:21.222Z,101816.45
2018-08-16T03:26:48.730Z,101821.15
2018-08-16T03:29:17.175Z,101820.20
2018-08-16T03:31:45.943Z,101822.58
2018-08-16T03:34:14.261Z,101825.09
2018-08-16T03:36:42.579Z,101829.91
2018-08-16T03:39:10.890Z,101828.50
2018-08-16T03:41:39.202Z,101829.41
2018-08-16T03:44:06.940Z,101831.62
2018-08-16T03:46:35.249Z,101830.23
2018-08-16T03:49:03.560Z,101832.28
2018-08-16T03:51:31.879Z,101829.82
2018-08-16T03:54:00.785Z,101837.23
2018-08-16T03:56:28.514Z,101837.00
2018-08-16T03:58:57.128Z,101832.56
2018-08-16T04:01:25.162Z,101834.44
2018-08-16T04:03:54.044Z,101837.42
2018-08-16T04:06:22.361Z,101839.31
2018-08-16T04:08:50.671Z,101842.13
2018-08-16T04:11:18.989Z,101840.94
2018-08-16T04:13:47.314Z,101843.03
2018-08-16T04:16:15.315Z,101839.49
2018-08-16T04:18:43.948Z,101844.02
2018-08-16T04:21:12.307Z,101846.28
2018-08-16T04:23:40.131Z,101849.43
2018-08-16T04:26:08.946Z,101853.33
2018-08-16T04:28:36.726Z,101853.59
2018-08-16T04:31:05.584Z,101853.34
2018-08-16T04:33:33.907Z,101853.84
2018-08-16T04:36:01.650Z,101859.13
2018-08-16T04:38:29.962Z,101859.31
2018-08-16T04:40:58.274Z,101862.07
2018-08-16T04:43:26.585Z,101865.91
2018-08-16T04:45:54.897Z,101866.59
2018-08-16T04:48:23.228Z,101870.33
2018-08-16T04:50:51.542Z,101870.41
2018-08-16T04:53:19.852Z,101876.20
2018-08-16T04:55:48.872Z,101874.97
2018-08-16T04:58:16.693Z,101875.70
2018-08-16T05:00:45.594Z,101877.52
2018-08-16T05:03:13.909Z,101880.03
2018-08-16T05:05:41.652Z,101877.98
2018-08-16T05:08:09.970Z,101879.33
2018-08-16T05:10:38.871Z,101875.03
2018-08-16T05:13:06.601Z,101872.19
2018-08-16T05:15:34.917Z,101873.73
2018-08-16T05:18:03.809Z,101876.56
2018-08-16T05:20:33.098Z,101875.91
2018-08-16T05:23:00.768Z,101873.47
2018-08-16T05:25:28.501Z,101875.33
2018-08-16T05:27:56.819Z,101877.98
2018-08-16T05:30:25.129Z,101878.28
2018-08-16T05:32:54.025Z,101879.44
2018-08-16T05:35:22.339Z,101881.45
2018-08-16T05:37:50.129Z,101884.13
2018-08-16T05:40:18.451Z,101883.08
2018-08-16T05:42:47.297Z,101872.17
2018-08-16T05:45:15.999Z,101876.19
2018-08-16T05:47:43.725Z,101878.33
2018-08-16T05:50:12.623Z,101873.69
2018-08-16T05:52:40.363Z,101880.58
2018-08-16T05:55:08.691Z,101882.44
2018-08-16T05:57:37.006Z,101878.89
2018-08-16T06:00:05.316Z,101882.20
2018-08-16T06:02:34.209Z,101880.59
2018-08-16T06:05:02.530Z,101879.99
2018-08-16T06:07:31.205Z,101879.92
2018-08-16T06:10:00.051Z,101877.98
2018-08-16T06:12:28.371Z,101879.80
2018-08-16T06:14:56.691Z,101883.68
2018-08-16T06:17:24.430Z,101879.69
2018-08-16T06:19:53.320Z,101880.09
2018-08-16T06:22:21.058Z,101885.30
2018-08-16T06:24:49.412Z,101880.23
2018-08-16T06:27:18.309Z,101879.27
2018-08-16T06:29:46.055Z,101881.51
2018-08-16T06:32:14.955Z,101878.59
2018-08-16T06:34:43.272Z,101880.19
2018-08-16T06:37:10.996Z,101881.81
2018-08-16T06:39:39.900Z,101880.78
2018-08-16T06:42:08.242Z,101885.23
2018-08-16T06:44:35.981Z,101885.05
2018-08-16T06:47:04.898Z,101886.14
2018-08-16T06:49:33.220Z,101883.95
2018-08-16T06:52:02.319Z,101884.32
2018-08-16T06:54:30.626Z,101886.03
2018-08-16T06:56:58.941Z,101889.91
2018-08-16T06:59:27.260Z,101888.36
2018-08-16T07:01:55.592Z,101880.66
2018-08-16T07:04:23.901Z,101883.84
2018-08-16T07:06:52.469Z,101890.52
2018-08-16T07:09:21.020Z,101888.73
2018-08-16T07:11:49.908Z,101890.80
2018-08-16T07:14:18.252Z,101890.45
2018-08-16T07:16:46.583Z,101893.27
2018-08-16T07:19:15.497Z,101892.98
2018-08-16T07:21:44.182Z,101897.70
2018-08-16T07:24:12.504Z,101903.27
2018-08-16T07:26:40.841Z,101905.02
2018-08-16T07:29:09.188Z,101906.34
2018-08-16T07:31:37.508Z,101905.69
2018-08-16T07:34:05.235Z,101906.94
2018-08-16T07:36:34.125Z,101911.37
2018-08-16T07:39:02.490Z,101916.33
2018-08-16T07:41:30.811Z,101913.06
2018-08-16T07:43:59.125Z,101913.59
2018-08-16T07:46:27.513Z,101917.33
2018-08-16T07:48:55.176Z,101917.30
2018-08-16T07:51:24.164Z,101923.34
2018-08-16T07:53:52.386Z,101916.48
2018-08-16T07:56:20.712Z,101919.92
2018-08-16T07:58:48.443Z,101919.84
2018-08-16T08:01:17.338Z,101923.27
2018-08-16T08:03:45.657Z,101923.15
2018-08-16T08:06:13.414Z,101922.39
2018-08-16T08:08:42.476Z,101918.52
2018-08-16T08:11:11.377Z,101922.31
2018-08-16T08:13:40.007Z,101921.67
2018-08-16T08:16:08.325Z,101924.05
2018-08-16T08:18:36.642Z,101921.77
2018-08-16T08:21:04.970Z,101928.69
2018-08-16T08:23:33.291Z,101925.34
2018-08-16T08:26:01.133Z,101920.05
2018-08-16T08:28:29.508Z,101920.39
2018-08-16T08:30:57.846Z,101921.59
2018-08-16T08:33:27.684Z,101921.14
2018-08-16T08:35:55.429Z,101919.42
2018-08-16T08:38:23.786Z,101920.66
2018-08-16T08:40:52.125Z,101917.19
2018-08-16T08:43:21.015Z,101911.96
2018-08-16T08:45:49.332Z,101910.17
2018-08-16T08:48:17.655Z,101916.14
2018-08-16T08:50:45.968Z,101920.23
2018-08-16T08:53:14.363Z,101917.77
2018-08-16T08:55:50.649Z,101915.89
2018-08-16T08:58:31.227Z,101913.75
2018-08-16T09:00:59.567Z,101909.91
2018-08-16T09:03:27.946Z,101914.05
2018-08-16T09:05:55.692Z,101916.06
2018-08-16T09:08:24.621Z,101913.30
2018-08-16T09:10:59.569Z,101917.52
2018-08-16T09:13:39.737Z,101914.56
2018-08-16T09:16:07.488Z,101908.39
2018-08-16T09:18:36.503Z,101913.38
2018-08-16T09:21:04.860Z,101911.06
2018-08-16T09:23:33.246Z,101910.97
2018-08-16T09:26:01.588Z,101902.11
2018-08-16T09:28:30.232Z,101899.49
2018-08-16T09:31:09.052Z,101897.98
2018-08-16T09:33:49.149Z,101898.68
2018-08-16T09:36:17.510Z,101899.99
2018-08-16T09:38:45.927Z,101898.09
2018-08-16T09:41:14.294Z,101896.79
2018-08-16T09:43:42.659Z,101891.84
2018-08-16T09:46:17.878Z,101891.52
2018-08-16T09:48:46.850Z,101893.98
2018-08-16T09:51:15.229Z,101892.95
2018-08-16T09:53:43.495Z,101894.34
2018-08-16T09:56:11.848Z,101891.67
2018-08-16T09:58:40.157Z,101890.00
2018-08-16T10:01:08.573Z,101889.95
2018-08-16T10:03:36.898Z,101890.22
2018-08-16T10:06:04.644Z,101889.64
2018-08-16T10:08:33.581Z,101888.65
2018-08-16T10:11:01.945Z,101885.60
2018-08-16T10:13:29.723Z,101878.77
2018-08-16T10:15:58.598Z,101876.59
2018-08-16T10:18:27.151Z,101876.66
2018-08-16T10:20:54.951Z,101883.11
2018-08-16T10:23:23.873Z,101888.02
2018-08-16T10:25:51.609Z,101888.39
2018-08-16T10:28:20.613Z,101890.28
2018-08-16T10:30:48.942Z,101885.58
2018-08-16T10:33:17.248Z,101881.34
2018-08-16T10:35:45.561Z,101883.17
2018-08-16T10:38:13.304Z,101879.54
2018-08-16T10:40:42.235Z,101884.03
2018-08-16T10:43:09.971Z,101879.39
2018-08-16T10:45:38.885Z,101885.62
2018-08-16T10:48:07.198Z,101877.39
2018-08-16T10:50:34.947Z,101880.43
2018-08-16T10:53:03.881Z,101881.06
2018-08-16T10:55:31.669Z,101885.52
2018-08-16T10:58:00.564Z,101875.67
2018-08-16T11:00:29.109Z,101878.10
2018-08-16T11:02:57.526Z,101880.33
2018-08-16T11:05:25.293Z,101878.89
2018-08-16T11:07:53.650Z,101878.88
2018-08-16T11:10:22.661Z,101875.49
2018-08-16T11:12:52.010Z,101877.93
2018-08-16T11:15:19.344Z,101870.79
2018-08-16T11:17:47.671Z,101865.65
2018-08-16T11:20:15.988Z,101866.67
2018-08-16T11:22:44.339Z,101866.59
2018-08-16T11:25:12.204Z,101866.61
2018-08-16T11:27:41.085Z,101867.95
2018-08-16T11:30:09.472Z,101870.37
2018-08-16T11:32:37.830Z,101866.81
2018-08-16T11:35:06.186Z,101866.39
2018-08-16T11:37:34.547Z,101861.98
2018-08-16T11:40:02.870Z,101859.48
2018-08-16T11:42:31.195Z,101863.05
2018-08-16T11:44:59.517Z,101864.23
2018-08-16T11:47:27.324Z,101862.00
2018-08-16T11:49:55.641Z,101858.57
2018-08-16T11:52:24.580Z,101860.87
2018-08-16T11:54:52.960Z,101853.31
2018-08-16T11:57:21.377Z,101852.00
2018-08-16T11:59:49.691Z,101851.48
2018-08-16T12:02:17.523Z,101849.94
2018-08-16T12:04:46.352Z,101850.34
2018-08-16T12:07:14.145Z,101846.36
2018-08-16T12:09:42.463Z,101845.14
2018-08-16T12:12:10.775Z,101842.70
2018-08-16T12:14:39.703Z,101839.56
2018-08-16T12:17:07.990Z,101840.77
2018-08-16T12:19:36.305Z,101843.44
2018-08-16T12:22:05.205Z,101839.91
2018-08-16T12:24:33.529Z,101836.84
2018-08-16T12:27:01.871Z,101840.34
2018-08-16T12:29:30.172Z,101840.27
2018-08-16T12:31:58.511Z,101837.05
2018-08-16T12:34:26.848Z,101833.00
2018-08-16T12:36:55.175Z,101833.08
2018-08-16T12:39:22.922Z,101823.81
2018-08-16T12:41:52.363Z,101827.25
2018-08-16T12:44:19.550Z,101825.63
2018-08-16T12:46:48.775Z,101823.48
2018-08-16T12:49:16.520Z,101824.32
2018-08-16T12:51:44.846Z,101823.31
2018-08-16T12:54:13.742Z,101825.09
2018-08-16T12:56:42.066Z,101828.89
2018-08-16T12:59:10.368Z,101833.19
2018-08-16T13:01:38.109Z,101829.14
2018-08-16T13:04:06.426Z,101829.36
2018-08-16T13:06:34.755Z,101822.52
2018-08-16T13:09:03.748Z,101821.34
2018-08-16T13:11:31.391Z,101820.30
2018-08-16T13:13:59.758Z,101818.66
2018-08-16T13:16:28.613Z,101818.73
2018-08-16T13:18:56.958Z,101817.23
2018-08-16T13:21:25.870Z,101818.88
2018-08-16T13:23:54.181Z,101817.77
2018-08-16T13:26:22.055Z,101814.11
2018-08-16T13:28:50.367Z,101813.98
2018-08-16T13:31:19.336Z,101810.80
2018-08-16T13:33:47.024Z,101809.36
2018-08-16T13:36:15.919Z,101809.84
2018-08-16T13:38:43.656Z,101812.77
2018-08-16T13:41:11.967Z,101809.97
2018-08-16T13:43:40.284Z,101805.57
2018-08-16T13:46:08.594Z,101809.02
2018-08-16T13:48:37.535Z,101807.12
2018-08-16T13:51:06.133Z,101805.14
2018-08-16T13:53:33.855Z,101806.16
2018-08-16T13:56:02.195Z,101804.45
2018-08-16T13:58:30.512Z,101804.20
2018-08-16T14:00:58.809Z,101804.38
2018-08-16T14:03:27.725Z,101803.61
2018-08-16T14:05:55.495Z,101800.84
2018-08-16T14:08:24.357Z,101806.56
2018-08-16T14:10:52.670Z,101807.63
2018-08-16T14:13:21.036Z,101804.67
2018-08-16T14:15:49.330Z,101802.14
2018-08-16T14:18:17.639Z,101806.80
2018-08-16T14:20:45.380Z,101802.92
2018-08-16T14:23:14.284Z,101801.02
2018-08-16T14:25:42.594Z,101798.92
2018-08-16T14:28:10.333Z,101799.26
2018-08-16T14:30:38.652Z,101803.24
2018-08-16T14:33:07.549Z,101801.81
2018-08-16T14:35:36.381Z,101801.30
2018-08-16T14:38:04.119Z,101799.31
2018-08-16T14:40:32.431Z,101798.19
2018-08-16T14:43:01.326Z,101796.98
2018-08-16T14:45:29.058Z,101800.30
2018-08-16T14:47:57.377Z,101795.00
2018-08-16T14:50:26.278Z,101795.65
2018-08-16T14:52:54.614Z,101790.63
2018-08-16T14:55:22.760Z,101793.11
2018-08-16T14:57:50.683Z,101791.05
2018-08-16T15:00:18.999Z,101786.28
2018-08-16T15:02:47.310Z,101782.87
2018-08-16T15:05:16.202Z,101779.44
2018-08-16T15:07:44.534Z,101782.05
2018-08-16T15:10:12.265Z,101783.19
2018-08-16T15:12:41.180Z,101785.87
2018-08-16T15:15:09.872Z,101779.61
2018-08-16T15:17:38.186Z,101781.59
2018-08-16T15:20:06.502Z,101774.59
2018-08-16T15:22:34.244Z,101775.55
2018-08-16T15:25:03.541Z,101777.38
2018-08-16T15:27:31.274Z,101773.86
2018-08-16T15:29:59.597Z,101775.17
2018-08-16T15:32:28.498Z,101772.25
2018-08-16T15:34:56.244Z,101768.64
2018-08-16T15:37:25.240Z,101770.58
2018-08-16T15:39:52.937Z,101767.99
2018-08-16T15:42:21.325Z,101768.34
2018-08-16T15:44:50.165Z,101769.02
2018-08-16T15:47:18.494Z,101768.16
2018-08-16T15:49:46.817Z,101773.16
2018-08-16T15:52:15.144Z,101772.84
2018-08-16T15:54:43.698Z,101768.52
2018-08-16T15:57:12.591Z,101768.62
2018-08-16T15:59:40.931Z,101767.21
2018-08-16T16:02:09.254Z,101762.59
2018-08-16T16:04:37.863Z,101760.94
2018-08-16T16:07:06.182Z,101763.02
2018-08-16T16:09:34.514Z,101759.05
2018-08-16T16:12:02.260Z,101757.44
2018-08-16T16:14:31.158Z,101759.20
2018-08-16T16:16:59.491Z,101753.86
2018-08-16T16:19:27.814Z,101750.67
2018-08-16T16:21:55.550Z,101746.08
2018-08-16T16:24:24.480Z,101743.41
2018-08-16T16:26:52.230Z,101744.36
2018-08-16T16:29:20.543Z,101743.84
2018-08-16T16:31:49.451Z,101743.89
2018-08-16T16:34:17.184Z,101742.65
2018-08-16T16:36:46.100Z,101736.50
2018-08-16T16:39:13.897Z,101737.25
2018-08-16T16:41:42.804Z,101736.20
2018-08-16T16:44:11.446Z,101738.77
2018-08-16T16:46:39.773Z,101736.94
2018-08-16T16:49:08.107Z,101734.73
2018-08-16T16:51:35.915Z,101731.48
2018-08-16T16:54:04.737Z,101728.63
2018-08-16T16:56:32.486Z,101721.10
2018-08-16T16:59:01.390Z,101722.67
2018-08-16T17:01:29.713Z,101727.77
2018-08-16T17:03:57.459Z,101725.14
2018-08-16T17:06:26.382Z,101724.13
2018-08-16T17:08:54.689Z,101723.59
2018-08-16T17:11:23.033Z,101724.61
2018-08-16T17:13:51.411Z,101725.94
2018-08-16T17:16:19.225Z,101727.88
2018-08-16T17:18:47.460Z,101724.66
2018-08-16T17:21:15.777Z,101731.08
2018-08-16T17:23:44.675Z,101728.87
2018-08-16T17:26:13.004Z,101728.89
2018-08-16T17:28:41.360Z,101727.14
2018-08-16T17:31:09.915Z,101725.09
2018-08-16T17:33:37.671Z,101729.58
2018-08-16T17:36:06.001Z,101731.54
2018-08-16T17:38:34.326Z,101731.98
2018-08-16T17:41:04.146Z,101726.93
2018-08-16T17:43:31.858Z,101733.83
2018-08-16T17:46:00.235Z,101732.53
2018-08-16T17:48:29.168Z,101733.95
2018-08-16T17:50:57.411Z,101731.77
2018-08-16T17:53:25.186Z,101732.36
2018-08-16T17:55:54.376Z,101730.16
2018-08-16T17:58:22.748Z,101734.03
2018-08-16T18:00:51.410Z,101735.98
2018-08-16T18:03:19.496Z,101736.25
2018-08-16T18:05:47.269Z,101739.40
2018-08-16T18:08:16.173Z,101739.49
2018-08-16T18:10:44.493Z,101739.96
2018-08-16T18:13:13.056Z,101740.88
2018-08-16T18:15:41.388Z,101740.44
2018-08-16T18:18:09.748Z,101741.47
2018-08-16T18:20:38.068Z,101742.61
2018-08-16T18:23:06.404Z,101744.66
2018-08-16T18:25:34.839Z,101746.33
2018-08-16T18:28:03.740Z,101745.91
2018-08-16T18:30:32.944Z,101746.98
2018-08-16T18:33:01.258Z,101750.84
2018-08-16T18:35:29.637Z,101750.61
2018-08-16T18:37:57.962Z,101755.57
2018-08-16T18:40:26.281Z,101754.06
2018-08-16T18:42:54.652Z,101752.92
2018-08-16T18:45:23.018Z,101749.48
2018-08-16T18:47:50.769Z,101752.89
2018-08-16T18:50:19.748Z,101751.47
2018-08-16T18:52:48.396Z,101747.55
2018-08-16T18:55:16.944Z,101753.81
2018-08-16T18:57:45.056Z,101751.06
2018-08-16T19:00:13.145Z,101749.72
2018-08-16T19:02:41.473Z,101748.75
2018-08-16T19:05:10.403Z,101751.55
2018-08-16T19:07:38.732Z,101744.96
2018-08-16T19:10:07.051Z,101743.73
2018-08-16T19:12:35.380Z,101738.66
2018-08-16T19:15:03.749Z,101744.02
2018-08-16T19:17:31.493Z,101742.08
2018-08-16T19:20:00.486Z,101741.50
2018-08-16T19:22:28.933Z,101744.89
2018-08-16T19:24:57.373Z,101743.18
2018-08-16T19:27:25.685Z,101746.41
2018-08-16T19:29:54.102Z,101742.97
2018-08-16T19:32:22.347Z,101745.83
2018-08-16T19:34:50.686Z,101747.52
2018-08-16T19:37:19.016Z,101741.66
2018-08-16T19:39:46.764Z,101741.53
2018-08-16T19:42:15.754Z,101745.15
2018-08-16T19:44:44.124Z,101741.38
2018-08-16T19:47:12.475Z,101740.94
2018-08-16T19:49:40.784Z,101740.79
2018-08-16T19:52:09.106Z,101741.17
2018-08-16T19:54:37.949Z,101737.25
2018-08-16T19:57:06.228Z,101738.41
2018-08-16T19:59:34.464Z,101739.42
2018-08-16T20:02:02.873Z,101742.27
2018-08-16T20:04:31.254Z,101743.22
2018-08-16T20:06:59.720Z,101738.94
2018-08-16T20:09:27.417Z,101744.72
2018-08-16T20:11:56.391Z,101745.70
2018-08-16T20:14:25.312Z,101744.39
2018-08-16T20:16:53.463Z,101746.73
2018-08-16T20:19:21.827Z,101745.73
2018-08-16T20:21:50.145Z,101745.34
2018-08-16T20:24:18.506Z,101745.61
2018-08-16T20:26:46.255Z,101749.07
2018-08-16T20:29:15.163Z,101750.91
2018-08-16T20:31:43.485Z,101753.55
2018-08-16T20:34:11.943Z,101757.12
2018-08-16T20:36:40.274Z,101760.98
2018-08-16T20:39:08.637Z,101762.09
2018-08-16T20:41:36.962Z,101763.98
2018-08-16T20:44:04.730Z,101765.44
2018-08-16T20:46:33.965Z,101768.38
2018-08-16T20:49:02.958Z,101767.86
2018-08-16T20:51:30.774Z,101772.83
2018-08-16T20:53:59.676Z,101774.96
2018-08-16T20:56:28.009Z,101772.73
2018-08-16T20:58:55.803Z,101776.64
2018-08-16T21:01:26.109Z,101775.25
2018-08-16T21:03:52.446Z,101778.36
2018-08-16T21:06:21.343Z,101776.05
2018-08-16T21:08:49.685Z,101774.70
2018-08-16T21:11:17.994Z,101773.78
2018-08-16T21:13:46.306Z,101774.05
2018-08-16T21:16:14.643Z,101773.34
2018-08-16T21:18:42.967Z,101770.24
2018-08-16T21:21:11.275Z,101774.00
2018-08-16T21:23:39.027Z,101778.56
2018-08-16T21:26:07.918Z,101780.03
2018-08-16T21:28:36.237Z,101776.16
2018-08-16T21:31:04.598Z,101777.85
2018-08-16T21:33:32.350Z,101776.98
2018-08-16T21:36:01.246Z,101782.98
2018-08-16T21:38:29.572Z,101782.11
2018-08-16T21:40:57.935Z,101782.30
2018-08-16T21:43:26.259Z,101789.06
2018-08-16T21:45:54.076Z,101787.95
2018-08-16T21:48:23.061Z,101784.59
2018-08-16T21:50:51.993Z,101784.11
2018-08-16T21:53:20.339Z,101779.55
2018-08-16T21:55:48.116Z,101780.81
2018-08-16T21:58:17.025Z,101784.17
2018-08-16T22:00:45.347Z,101785.19
2018-08-16T22:03:13.074Z,101784.52
2018-08-16T22:05:42.004Z,101786.27
2018-08-16T22:08:09.826Z,101784.88
2018-08-16T22:10:38.720Z,101783.25
2018-08-16T22:13:07.040Z,101784.73
2018-08-16T22:15:35.369Z,101780.93
2018-08-16T22:18:03.277Z,101787.33
2018-08-16T22:20:32.356Z,101787.66
2018-08-16T22:23:00.090Z,101782.55
2018-08-16T22:25:29.012Z,101781.38
2018-08-16T22:27:56.746Z,101780.53
2018-08-16T22:30:25.639Z,101778.73
2018-08-16T22:32:53.986Z,101772.23
2018-08-16T22:35:22.295Z,101768.90
2018-08-16T22:37:50.601Z,101772.83
2018-08-16T22:40:18.912Z,101769.14
2018-08-16T22:42:46.701Z,101769.83
2018-08-16T22:45:15.661Z,101766.95
2018-08-16T22:47:43.988Z,101766.27
2018-08-16T22:50:11.913Z,101762.88
2018-08-16T22:52:40.088Z,101760.05
2018-08-16T22:55:08.994Z,101756.30
2018-08-16T22:57:37.297Z,101761.30
2018-08-16T23:00:05.614Z,101763.33
2018-08-16T23:02:33.999Z,101761.80
2018-08-16T23:05:03.015Z,101761.27
2018-08-16T23:07:31.276Z,101755.50
2018-08-16T23:09:59.009Z,101760.55
2018-08-16T23:12:27.913Z,101762.81
2018-08-16T23:14:55.923Z,101763.88
2018-08-16T23:17:24.548Z,101761.00
2018-08-16T23:19:52.281Z,101758.33
2018-08-16T23:22:21.177Z,101755.66
2018-08-16T23:24:48.917Z,101753.72
2018-08-16T23:27:17.250Z,101752.42
2018-08-16T23:29:45.550Z,101754.05
2018-08-16T23:32:14.468Z,101751.83
2018-08-16T23:34:42.727Z,101752.17
2018-08-16T23:37:11.326Z,101751.50
2018-08-16T23:39:38.831Z,101747.03
2018-08-16T23:42:08.075Z,101745.95
2018-08-16T23:44:35.814Z,101741.03
2018-08-16T23:47:04.723Z,101742.84
2018-08-16T23:49:33.026Z,101741.50
2018-08-16T23:52:00.794Z,101739.80
2018-08-16T23:54:29.111Z,101742.87
2018-08-16T23:56:58.055Z,101741.28
2018-08-16T23:59:26.601Z,101734.05
